Time;durP1;ratioP1;P1;durP2;ratioP2;P2;SDS_P1;SDS_P2;PMS_P1;PMS_P2;Temp;Humidity;BMP_temperature;BMP_pressure;BME280_temperature;BME280_humidity;BME280_pressure;Samples;Min_cycle;Max_cycle;Signal;HPM_P1;HPM_P2
2023/01/24 07:07:50;;;;;;;;;;;;;;;2.31;58.75;97988.06;4256432;27;10349;-66
2023/01/24 07:09:53;;;;;;;;;;;;;;;2.61;58.37;97995.41;4248145;27;5845;-66
2023/01/24 07:11:57;;;;;;;;;;;;;;;2.87;58.08;98000.44;4247832;27;5645;-66
2023/01/24 07:14:00;;;;;;;;;;;;;;;3.03;57.73;98000.94;4244833;27;5768;-67
2023/01/24 07:16:03;;;;;;;;;;;;;;;3.18;57.58;98009.41;4247496;27;5847;-67
2023/01/24 07:18:06;;;;;;;;;;;;;;;3.29;57.34;98004.19;4247462;27;5091;-67
2023/01/24 07:20:12;;;;;;;;;;;;;;;3.38;57.28;98006.06;4249017;27;7675;-68
2023/01/24 07:22:15;;;;;;;;;;;;;;;3.47;57.19;98015.00;4248245;27;5657;-67
2023/01/24 07:24:21;;;;;;;;;;;;;;;3.56;57.06;98014.28;4247571;27;5728;-66
2023/01/24 07:26:25;;;;;;;;;;;;;;;3.62;57.05;98015.59;4248049;27;5685;-66
2023/01/24 07:28:27;;;;;;;;;;;;;;;3.69;56.88;98019.38;4247866;27;5799;-66
2023/01/24 07:30:30;;;;;;;;;;;;;;;3.71;56.85;98014.88;4248468;27;5650;-66
2023/01/24 07:32:33;;;;;;;;;;;;;;;3.75;56.82;98024.16;4247613;27;5728;-66
2023/01/24 07:34:36;;;;;;;;;;;;;;;3.80;56.82;98019.38;4247825;27;5637;-66
2023/01/24 07:36:41;;;;;;;;;;;;;;;3.83;56.78;98028.75;4248649;27;5769;-67
2023/01/24 07:38:44;;;;;;;;;;;;;;;3.86;56.60;98021.53;4248546;27;5649;-67
2023/01/24 07:40:48;;;;;;;;;;;;;;;3.91;56.49;98021.97;4248280;27;5661;-66
2023/01/24 07:42:51;;;;;;;;;;;;;;;3.94;56.51;98018.28;4245637;27;5731;-67
2023/01/24 07:44:56;;;;;;;;;;;;;;;3.97;56.46;98028.53;4247614;27;5736;-67
2023/01/24 07:46:59;;;;;;;;;;;;;;;4.00;56.31;98020.44;4247359;27;5689;-66
2023/01/24 07:49:02;;;;;;;;;;;;;;;4.02;56.41;98021.13;4247513;27;5721;-66
2023/01/24 07:51:05;;;;;;;;;;;;;;;4.05;56.38;98026.13;4248483;27;5724;-66
2023/01/24 07:53:08;;;;;;;;;;;;;;;4.08;56.28;98026.72;4248178;27;5649;-67
2023/01/24 07:55:11;;;;;;;;;;;;;;;4.13;56.17;98046.44;4248169;27;5739;-67
2023/01/24 07:57:16;;;;;;;;;;;;;;;4.16;56.07;98046.19;4244569;27;5831;-67
2023/01/24 07:59:21;;;;;;;;;;;;;;;4.19;56.15;98048.56;4242676;27;5649;-67
2023/01/24 08:01:39;;;;;;;;;;;;;;;4.22;55.91;98058.81;4247744;27;5656;-66
2023/01/24 08:03:42;;;;;;;;;;;;;;;4.22;55.91;98051.78;4248048;27;5825;-66
2023/01/24 08:05:45;;;;;;;;;;;;;;;4.27;55.97;98048.78;4232460;27;5749;-66
2023/01/24 08:07:47;;;;;;;;;;;;;;;4.28;55.87;98047.81;4236301;27;5641;-63
2023/01/24 08:09:50;;;;;;;;;;;;;;;4.30;55.81;98052.00;4230945;28;5715;-62
2023/01/24 08:11:55;;;;;;;;;;;;;;;4.33;55.99;98059.59;4233240;28;5657;-62
2023/01/24 08:14:02;;;;;;;;;;;;;;;4.31;55.81;98056.28;4234994;27;5638;-62
2023/01/24 08:16:06;;;;;;;;;;;;;;;4.36;55.69;98066.38;4235481;28;5724;-62
2023/01/24 08:18:09;;;;;;;;;;;;;;;4.37;55.69;98057.56;4235710;28;5642;-63
2023/01/24 08:20:12;;;;;;;;;;;;;;;4.41;55.60;98071.22;4236114;27;5660;-63
2023/01/24 08:22:15;;;;;;;;;;;;;;;4.41;55.52;98066.81;4235712;28;5733;-63
2023/01/24 08:24:17;;;;;;;;;;;;;;;4.43;55.57;98064.94;4234841;28;5817;-63
2023/01/24 08:26:20;;;;;;;;;;;;;;;4.45;55.50;98060.41;4235973;28;5642;-63
2023/01/24 08:28:24;;;;;;;;;;;;;;;4.46;55.34;98064.69;4235082;27;5791;-63
2023/01/24 08:30:28;;;;;;;;;;;;;;;4.47;55.43;98068.97;4234811;28;6609;-63
2023/01/24 08:32:33;;;;;;;;;;;;;;;4.49;55.30;98072.28;4230262;28;5896;-63
2023/01/24 08:34:37;;;;;;;;;;;;;;;4.52;55.33;98077.28;4232851;28;5790;-63
2023/01/24 08:36:40;;;;;;;;;;;;;;;4.54;55.25;98074.56;4235261;28;5737;-63
2023/01/24 08:38:42;;;;;;;;;;;;;;;4.55;55.39;98082.28;4236217;28;5641;-63
2023/01/24 08:40:45;;;;;;;;;;;;;;;4.57;55.27;98090.84;4230265;28;5662;-62
2023/01/24 08:42:52;;;;;;;;;;;;;;;4.59;55.08;98094.16;4235356;28;5712;-63
2023/01/24 08:44:55;;;;;;;;;;;;;;;4.62;55.01;98093.06;4233799;28;5653;-62
2023/01/24 08:46:59;;;;;;;;;;;;;;;4.64;55.11;98089.41;4234351;27;5649;-62
2023/01/24 08:49:03;;;;;;;;;;;;;;;4.67;54.87;98091.75;4235877;28;5106;-62
2023/01/24 08:51:07;;;;;;;;;;;;;;;4.70;54.93;98092.47;4235333;28;5917;-62
2023/01/24 08:53:11;;;;;;;;;;;;;;;4.73;54.87;98095.66;4234970;28;5744;-62
2023/01/24 08:55:14;;;;;;;;;;;;;;;4.74;54.90;98097.31;4234920;28;5649;-63
2023/01/24 08:57:16;;;;;;;;;;;;;;;4.76;54.77;98099.84;4234146;28;5634;-62
2023/01/24 08:59:19;;;;;;;;;;;;;;;4.78;54.91;98095.31;4236076;28;5748;-63
2023/01/24 09:01:22;;;;;;;;;;;;;;;4.81;54.76;98097.66;4235090;28;5652;-62
2023/01/24 09:03:27;;;;;;;;;;;;;;;4.81;54.71;98108.16;4235405;28;5848;-62
2023/01/24 09:05:30;;;;;;;;;;;;;;;4.83;54.53;98107.06;4235775;28;5656;-63
2023/01/24 09:07:34;;;;;;;;;;;;;;;4.86;54.55;98112.03;4172693;28;5813;-63
2023/01/24 09:09:37;;;;;;;;;;;;;;;4.88;54.57;98104.91;4166140;28;5855;-62
2023/01/24 09:11:40;;;;;;;;;;;;;;;4.90;54.45;98103.00;4165504;28;5718;-63
2023/01/24 09:13:43;;;;;;;;;;;;;;;4.91;54.35;98099.41;4164069;28;5901;-63
2023/01/24 09:15:47;;;;;;;;;;;;;;;4.88;54.36;98096.22;4160974;28;5702;-63
2023/01/24 09:17:55;;;;;;;;;;;;;;;4.88;54.45;98104.06;4165364;28;5726;-64
2023/01/24 09:19:59;;;;;;;;;;;;;;;4.92;54.45;98100.25;4164990;28;5706;-64
2023/01/24 09:22:02;;;;;;;;;;;;;;;4.96;54.33;98101.63;4165917;28;5798;-64
2023/01/24 09:24:05;;;;;;;;;;;;;;;4.99;54.38;98108.44;4165781;28;5702;-63
2023/01/24 09:26:09;;;;;;;;;;;;;;;5.02;54.13;98114.25;4163308;28;6440;-63
2023/01/24 09:28:11;;;;;;;;;;;;;;;5.03;54.23;98113.28;4165999;28;5703;-63
2023/01/24 09:30:16;;;;;;;;;;;;;;;5.04;54.19;98109.72;4165780;28;5727;-64
2023/01/24 09:32:19;;;;;;;;;;;;;;;5.06;54.21;98105.16;4165587;28;5817;-63
2023/01/24 09:34:23;;;;;;;;;;;;;;;5.07;54.21;98111.25;4165395;28;5813;-64
2023/01/24 09:36:27;;;;;;;;;;;;;;;5.07;54.12;98112.06;4165304;28;5845;-64
2023/01/24 09:38:32;;;;;;;;;;;;;;;5.05;54.12;98116.63;4163951;28;5785;-63
2023/01/24 09:40:44;;;;;;;;;;;;;;;5.09;54.06;98118.00;4164978;28;5781;-63
2023/01/24 09:42:56;;;;;;;;;;;;;;;5.12;54.03;98117.78;4165469;27;5793;-64
2023/01/24 09:45:13;;;;;;;;;;;;;;;5.16;53.95;98123.59;4164940;27;5799;-63
2023/01/24 09:47:23;;;;;;;;;;;;;;;5.15;53.91;98122.75;4165738;28;5933;-63
2023/01/24 09:49:37;;;;;;;;;;;;;;;5.16;53.85;98113.94;4164996;28;5825;-63
2023/01/24 09:51:46;;;;;;;;;;;;;;;5.17;53.95;98110.34;4165675;28;6407;-63
2023/01/24 09:53:53;;;;;;;;;;;;;;;5.19;53.94;98108.44;4157928;28;5711;-63
2023/01/24 09:55:59;;;;;;;;;;;;;;;5.19;53.83;98112.84;4164710;28;6423;-63
2023/01/24 09:58:08;;;;;;;;;;;;;;;5.20;53.84;98117.97;4231453;28;6409;-62
2023/01/24 10:00:18;;;;;;;;;;;;;;;5.20;53.74;98120.59;4164523;28;5707;-62
2023/01/24 10:02:23;;;;;;;;;;;;;;;5.23;53.74;98136.06;4165408;28;5804;-62
2023/01/24 10:04:32;;;;;;;;;;;;;;;5.24;53.65;98129.88;4165566;28;5769;-63
2023/01/24 10:06:39;;;;;;;;;;;;;;;5.24;53.74;98135.13;4165298;28;5786;-64
2023/01/24 10:08:53;;;;;;;;;;;;;;;5.24;53.69;98137.75;4164370;28;5717;-64
2023/01/24 10:11:09;;;;;;;;;;;;;;;5.26;53.50;98129.75;4157573;28;5700;-63
2023/01/24 10:13:45;;;;;;;;;;;;;;;5.25;53.62;98125.47;4158813;28;5857;-63
2023/01/24 10:15:55;;;;;;;;;;;;;;;5.25;53.63;98125.47;4160386;28;5733;-63
2023/01/24 10:18:09;;;;;;;;;;;;;;;5.27;53.67;98128.78;4164512;28;5777;-63
2023/01/24 10:20:32;;;;;;;;;;;;;;;5.32;53.36;98123.13;4165203;28;5710;-63
2023/01/24 10:22:54;;;;;;;;;;;;;;;5.34;53.18;98118.63;4163950;28;5812;-63
2023/01/24 10:25:05;;;;;;;;;;;;;;;5.38;53.43;98127.88;4164091;28;5734;-63
2023/01/24 10:27:16;;;;;;;;;;;;;;;5.39;53.45;98117.25;4151896;28;5714;-64
2023/01/24 10:29:21;;;;;;;;;;;;;;;5.45;53.20;98124.63;4164402;28;5781;-63
2023/01/24 10:31:28;;;;;;;;;;;;;;;5.48;53.22;98128.78;4162135;28;5807;-63
2023/01/24 10:33:34;;;;;;;;;;;;;;;5.51;53.38;98113.63;4165268;28;5847;-63
2023/01/24 10:35:51;;;;;;;;;;;;;;;5.52;53.19;98117.06;4163863;28;5731;-63
2023/01/24 10:37:59;;;;;;;;;;;;;;;5.55;53.29;98120.28;4161147;27;5831;-63
2023/01/24 10:40:11;;;;;;;;;;;;;;;5.58;53.28;98110.50;4163520;28;5833;-63
2023/01/24 10:42:21;;;;;;;;;;;;;;;5.62;53.00;98115.34;4163795;28;5416;-63
2023/01/24 10:44:28;;;;;;;;;;;;;;;5.64;53.02;98113.41;4163297;28;8465;-63
2023/01/24 10:47:03;;;;;;;;;;;;;;;5.65;53.14;98109.81;4163206;28;6907;-63
2023/01/24 10:49:16;;;;;;;;;;;;;;;5.58;52.91;98100.00;4189035;28;5770;-63
2023/01/24 10:51:22;;;;;;;;;;;;;;;5.55;52.93;98109.78;4163603;28;5869;-63
2023/01/24 10:53:26;;;;;;;;;;;;;;;5.58;52.98;98108.69;4163736;27;5793;-62
2023/01/24 10:55:37;;;;;;;;;;;;;;;5.64;52.77;98110.78;4161160;28;6116;-66
2023/01/24 10:57:43;;;;;;;;;;;;;;;5.67;52.69;98112.34;4163256;28;5717;-65
2023/01/24 10:59:47;;;;;;;;;;;;;;;5.67;52.67;98102.66;4158271;28;5852;-65
2023/01/24 11:01:50;;;;;;;;;;;;;;;5.68;52.70;98108.75;4156112;28;5881;-65
2023/01/24 11:03:54;;;;;;;;;;;;;;;5.66;52.74;98116.72;4164305;28;6361;-65
2023/01/24 11:05:58;;;;;;;;;;;;;;;5.67;52.66;98107.09;4163900;28;5809;-65
2023/01/24 11:08:04;;;;;;;;;;;;;;;5.66;52.58;98098.34;4163834;28;5949;-65
2023/01/24 11:10:19;;;;;;;;;;;;;;;5.69;52.66;98106.00;4156001;28;5736;-65
2023/01/24 11:12:23;;;;;;;;;;;;;;;5.66;52.67;98100.16;4163973;28;5698;-65
2023/01/24 11:14:28;;;;;;;;;;;;;;;5.66;52.51;98098.34;4163322;28;5801;-65
2023/01/24 11:16:34;;;;;;;;;;;;;;;5.67;52.69;98101.84;4164268;28;5766;-65
2023/01/24 11:18:37;;;;;;;;;;;;;;;5.68;52.48;98099.09;4167236;27;5729;-65
2023/01/24 11:20:42;;;;;;;;;;;;;;;5.71;52.42;98093.56;4164492;28;5855;-65
2023/01/24 11:22:50;;;;;;;;;;;;;;;5.72;52.38;98095.22;4161929;28;5695;-65
2023/01/24 11:24:57;;;;;;;;;;;;;;;5.73;52.55;98091.63;4162169;28;5713;-65
2023/01/24 11:27:13;;;;;;;;;;;;;;;5.73;52.47;98099.50;4160645;28;6420;-65
2023/01/24 11:29:17;;;;;;;;;;;;;;;5.73;52.47;98098.69;4160434;28;6018;-65
2023/01/24 11:31:26;;;;;;;;;;;;;;;5.74;52.62;98098.53;4162793;28;5668;-65
2023/01/24 11:33:41;;;;;;;;;;;;;;;5.76;52.49;98099.25;4164026;28;5699;-66
2023/01/24 11:35:46;;;;;;;;;;;;;;;5.81;52.51;98093.63;4164109;28;5714;-65
2023/01/24 11:38:21;;;;;;;;;;;;;;;5.82;52.39;98096.09;4164340;28;5698;-66
2023/01/24 11:40:36;;;;;;;;;;;;;;;5.83;52.47;98091.69;4167042;28;5123;-66
2023/01/24 11:42:46;;;;;;;;;;;;;;;5.84;52.27;98094.19;4164300;28;5707;-66
2023/01/24 11:45:15;;;;;;;;;;;;;;;5.82;52.34;98088.22;4156484;28;5797;-66
2023/01/24 11:47:21;;;;;;;;;;;;;;;5.84;52.41;98088.09;4166429;28;5814;-66
2023/01/24 11:49:41;;;;;;;;;;;;;;;5.84;52.50;98093.34;4164421;28;5804;-66
2023/01/24 11:51:54;;;;;;;;;;;;;;;5.82;52.37;98088.22;4175251;28;5768;-65
2023/01/24 11:54:27;;;;;;;;;;;;;;;5.84;52.47;98093.34;4160673;28;5842;-66
2023/01/24 11:56:41;;;;;;;;;;;;;;;5.85;52.27;98098.47;4167059;28;6407;-66
2023/01/24 11:58:55;;;;;;;;;;;;;;;5.87;52.34;98092.25;4165938;28;5804;-65
2023/01/24 12:01:09;;;;;;;;;;;;;;;5.87;52.24;98092.25;4164055;28;5772;-64
2023/01/24 12:03:30;;;;;;;;;;;;;;;5.89;52.31;98090.31;4164351;28;5657;-64
2023/01/24 12:05:47;;;;;;;;;;;;;;;5.88;52.27;98093.91;4167965;27;5872;-64
2023/01/24 12:08:00;;;;;;;;;;;;;;;5.83;52.31;98082.03;4236220;28;5661;-65
2023/01/24 12:10:15;;;;;;;;;;;;;;;5.80;52.35;98090.16;4228254;28;5961;-64
2023/01/24 12:12:26;;;;;;;;;;;;;;;5.82;52.40;98088.22;4235870;28;5629;-65
2023/01/24 12:14:56;;;;;;;;;;;;;;;5.82;52.32;98080.34;4236418;28;5903;-65
2023/01/24 12:17:07;;;;;;;;;;;;;;;5.81;52.07;98086.56;4229385;28;6452;-65
2023/01/24 12:19:50;;;;;;;;;;;;;;;5.80;52.36;98090.16;4226863;28;5902;-65
2023/01/24 12:21:55;;;;;;;;;;;;;;;5.84;52.15;98094.19;4235222;27;5630;-65
2023/01/24 12:24:03;;;;;;;;;;;;;;;5.90;52.24;98092.00;4235150;28;5742;-66
2023/01/24 12:26:11;;;;;;;;;;;;;;;5.91;52.13;98091.91;4235856;27;5719;-66
2023/01/24 12:28:17;;;;;;;;;;;;;;;5.91;52.26;98093.69;4231357;28;5660;-65
2023/01/24 12:30:30;;;;;;;;;;;;;;;5.91;51.94;98093.69;4237939;27;5644;-66
2023/01/24 12:32:39;;;;;;;;;;;;;;;5.93;52.10;98086.50;4236031;27;5749;-66
2023/01/24 12:34:46;;;;;;;;;;;;;;;5.94;52.16;98085.53;4235592;28;5633;-62
2023/01/24 12:36:57;;;;;;;;;;;;;;;5.92;52.08;98087.47;4231864;27;6406;-62
2023/01/24 12:39:05;;;;;;;;;;;;;;;5.92;52.02;98087.47;4233311;27;5801;-62
2023/01/24 12:41:20;;;;;;;;;;;;;;;5.90;52.14;98084.13;4235040;27;5647;-62
2023/01/24 12:43:32;;;;;;;;;;;;;;;5.90;52.17;98086.75;4235443;27;5604;-62
2023/01/24 12:45:41;;;;;;;;;;;;;;;5.88;51.91;98093.91;4235175;27;5673;-62
2023/01/24 12:47:50;;;;;;;;;;;;;;;5.87;52.11;98087.81;4230819;27;5780;-61
2023/01/24 12:50:09;;;;;;;;;;;;;;;5.88;52.23;98083.41;4233773;27;5638;-62
2023/01/24 12:52:20;;;;;;;;;;;;;;;5.93;52.23;98092.59;4230822;28;5838;-62
2023/01/24 12:54:31;;;;;;;;;;;;;;;5.95;52.15;98090.66;4231273;27;5762;-62
2023/01/24 12:56:47;;;;;;;;;;;;;;;5.99;51.98;98085.97;4234061;27;5642;-62
2023/01/24 12:58:52;;;;;;;;;;;;;;;5.99;51.94;98089.41;4225742;27;5779;-61
2023/01/24 13:01:08;;;;;;;;;;;;;;;6.01;52.03;98089.31;4235081;28;5743;-61
2023/01/24 13:03:45;;;;;;;;;;;;;;;6.00;51.82;98098.13;4230372;28;5909;-61
2023/01/24 13:05:53;;;;;;;;;;;;;;;6.01;51.99;98094.56;4209958;28;5645;-61
2023/01/24 13:08:11;;;;;;;;;;;;;;;6.02;52.10;98089.19;4133156;28;5952;-62
2023/01/24 13:10:22;;;;;;;;;;;;;;;6.07;51.86;98091.38;4129917;28;6543;-62
2023/01/24 13:12:29;;;;;;;;;;;;;;;6.10;51.75;98089.31;4132951;28;5785;-61
2023/01/24 13:14:38;;;;;;;;;;;;;;;6.14;51.74;98084.66;4132921;28;5712;-61
2023/01/24 13:16:58;;;;;;;;;;;;;;;6.18;51.82;98083.41;4132558;28;5692;-61
2023/01/24 13:19:12;;;;;;;;;;;;;;;6.21;51.95;98083.13;4132414;28;5700;-61
2023/01/24 13:21:24;;;;;;;;;;;;;;;6.21;51.88;98080.50;4131979;28;5707;-61
2023/01/24 13:23:37;;;;;;;;;;;;;;;6.22;51.74;98084.78;4132187;28;5707;-61
2023/01/24 13:25:56;;;;;;;;;;;;;;;6.26;51.99;98086.22;4132452;28;5712;-61
2023/01/24 13:28:06;;;;;;;;;;;;;;;6.30;51.77;98082.34;4126582;28;5781;-63
2023/01/24 13:30:28;;;;;;;;;;;;;;;6.32;51.65;98087.44;4132793;28;5703;-65
2023/01/24 13:32:35;;;;;;;;;;;;;;;6.29;51.82;98085.09;4131709;28;5725;-62
2023/01/24 13:34:44;;;;;;;;;;;;;;;6.28;51.83;98092.16;4131817;28;5751;-61
2023/01/24 13:36:50;;;;;;;;;;;;;;;6.32;51.67;98092.69;4125410;28;5670;-63
2023/01/24 13:38:53;;;;;;;;;;;;;;;6.34;51.69;98099.50;4131127;28;6616;-61
2023/01/24 13:41:02;;;;;;;;;;;;;;;6.32;51.79;98098.78;4131969;28;5713;-61
2023/01/24 13:43:25;;;;;;;;;;;;;;;6.31;51.80;98099.75;4128363;28;5696;-62
2023/01/24 13:46:01;;;;;;;;;;;;;;;6.33;51.81;98099.63;4127211;28;5682;-61
2023/01/24 13:48:23;;;;;;;;;;;;;;;6.33;51.81;98100.44;4131764;28;5911;-61
2023/01/24 13:50:28;;;;;;;;;;;;;;;6.33;51.53;98102.25;4133363;28;7696;-61
2023/01/24 13:52:44;;;;;;;;;;;;;;;6.33;51.78;98103.06;4131841;28;5715;-62
2023/01/24 13:54:47;;;;;;;;;;;;;;;6.33;51.65;98108.31;4132663;28;5728;-63
2023/01/24 13:57:21;;;;;;;;;;;;;;;6.33;51.60;98105.69;4131208;28;5654;-61
2023/01/24 13:59:24;;;;;;;;;;;;;;;6.34;51.46;98107.38;4132700;28;7160;-62
2023/01/24 14:01:28;;;;;;;;;;;;;;;6.32;51.72;98111.91;4127318;28;6430;-61
2023/01/24 14:03:34;;;;;;;;;;;;;;;6.37;51.52;98122.03;4123704;28;5962;-62
2023/01/24 14:05:46;;;;;;;;;;;;;;;6.34;51.59;98117.88;4130723;28;5096;-62
2023/01/24 14:07:49;;;;;;;;;;;;;;;6.35;51.44;98124.81;4124197;28;7691;-62
2023/01/24 14:09:58;;;;;;;;;;;;;;;6.37;51.49;98122.03;4132337;28;5766;-63
2023/01/24 14:12:04;;;;;;;;;;;;;;;6.37;51.47;98130.75;4131907;28;5728;-62
2023/01/24 14:14:30;;;;;;;;;;;;;;;6.33;51.51;98121.47;4131329;28;5670;-62
2023/01/24 14:17:02;;;;;;;;;;;;;;;6.25;51.56;98128.38;4130277;28;6042;-63
2023/01/24 14:19:22;;;;;;;;;;;;;;;6.23;51.58;98125.00;4128102;28;6859;-62
2023/01/24 14:21:32;;;;;;;;;;;;;;;6.23;51.34;98125.00;4132348;28;5896;-62
2023/01/24 14:23:35;;;;;;;;;;;;;;;6.22;51.38;98120.72;4131421;28;5703;-62
2023/01/24 14:25:48;;;;;;;;;;;;;;;6.13;51.44;98125.00;4131403;28;5716;-63
2023/01/24 14:27:59;;;;;;;;;;;;;;;6.04;51.56;98121.38;4141816;28;5734;-63
2023/01/24 14:30:27;;;;;;;;;;;;;;;6.03;51.67;98121.50;4137998;28;5567;-63
2023/01/24 14:32:38;;;;;;;;;;;;;;;6.06;51.58;98126.50;4140692;28;7013;-63
2023/01/24 14:34:47;;;;;;;;;;;;;;;6.07;51.46;98128.97;4131402;28;5208;-63
2023/01/24 14:37:03;;;;;;;;;;;;;;;6.05;51.35;98122.19;4131864;28;7742;-63
2023/01/24 14:39:27;;;;;;;;;;;;;;;6.02;51.56;98133.81;4131318;28;5690;-66
2023/01/24 14:41:30;;;;;;;;;;;;;;;6.02;51.50;98131.19;4135734;28;5696;-63
2023/01/24 14:43:39;;;;;;;;;;;;;;;5.97;51.46;98132.53;4124005;28;5878;-62
2023/01/24 14:45:42;;;;;;;;;;;;;;;6.00;51.31;98134.88;4130752;28;5866;-62
2023/01/24 14:47:50;;;;;;;;;;;;;;;6.01;51.40;98136.56;4123271;28;5801;-65
2023/01/24 14:49:55;;;;;;;;;;;;;;;6.02;51.39;98130.34;4131806;28;5704;-61
2023/01/24 14:52:00;;;;;;;;;;;;;;;6.04;51.53;98134.50;4130169;28;5707;-64
2023/01/24 14:54:22;;;;;;;;;;;;;;;6.09;51.32;98141.97;4130760;28;5720;-64
2023/01/24 14:56:25;;;;;;;;;;;;;;;6.10;51.31;98143.63;4131832;28;5708;-61
2023/01/24 14:58:30;;;;;;;;;;;;;;;6.15;51.28;98149.31;4129398;28;5670;-62
2023/01/24 15:00:33;;;;;;;;;;;;;;;6.16;51.24;98148.38;4129042;28;5811;-63
2023/01/24 15:02:36;;;;;;;;;;;;;;;6.11;51.30;98143.50;4131707;28;5670;-61
2023/01/24 15:04:45;;;;;;;;;;;;;;;6.05;51.36;98140.59;4130008;28;5808;-61
2023/01/24 15:09:20;;;;;;;;;;;;;;;6.10;51.29;98156.75;4216138;27;10472;-62
2023/01/24 15:11:28;;;;;;;;;;;;;;;6.04;51.38;98159.94;4214221;28;5739;-61
2023/01/24 15:13:35;;;;;;;;;;;;;;;6.03;51.14;98159.09;4211044;28;5120;-66
2023/01/24 15:15:40;;;;;;;;;;;;;;;6.04;51.47;98160.75;4214622;28;5731;-66
2023/01/24 15:17:46;;;;;;;;;;;;;;;6.09;51.31;98166.44;4212771;28;5112;-66
2023/01/24 15:19:52;;;;;;;;;;;;;;;6.15;51.34;98159.84;4197816;28;5792;-67
2023/01/24 15:21:57;;;;;;;;;;;;;;;6.20;51.25;98162.88;4207517;28;5743;-67
2023/01/24 15:24:02;;;;;;;;;;;;;;;6.23;51.26;98152.13;4203020;28;5832;-66
2023/01/24 15:26:32;;;;;;;;;;;;;;;6.26;51.01;98167.63;4206295;28;5747;-68
2023/01/24 15:28:39;;;;;;;;;;;;;;;6.25;51.15;98163.34;4195569;28;5743;-67
2023/01/24 15:30:52;;;;;;;;;;;;;;;6.24;51.03;98166.09;4214394;28;6434;-68
2023/01/24 15:33:02;;;;;;;;;;;;;;;6.23;51.05;98170.53;4211237;28;5810;-67
2023/01/24 15:35:28;;;;;;;;;;;;;;;6.23;51.05;98173.16;4202983;28;5830;-68
2023/01/24 15:37:31;;;;;;;;;;;;;;;6.21;50.99;98176.84;4204574;28;5762;-67
2023/01/24 15:39:34;;;;;;;;;;;;;;;6.14;51.08;98187.06;4197526;28;5761;-67
2023/01/24 15:44:04;;;;;;;;;;;;;;;6.11;51.05;98169.75;4171353;28;5949;-66
2023/01/24 15:48:36;;;;;;;;;;;;;;;6.05;51.33;98170.28;4202811;28;6554;-68
2023/01/24 15:51:09;;;;;;;;;;;;;;;6.04;51.35;98176.50;4205633;28;5740;-64
2023/01/24 15:53:18;;;;;;;;;;;;;;;6.09;51.33;98170.84;4210635;28;5811;-66
2023/01/24 15:55:25;;;;;;;;;;;;;;;6.02;51.29;98180.22;4208790;28;5756;-67
2023/01/24 15:57:31;;;;;;;;;;;;;;;6.02;51.47;98177.59;4208577;28;6415;-66
2023/01/24 15:59:45;;;;;;;;;;;;;;;6.05;51.20;98174.72;4207142;28;5894;-64
2023/01/24 16:01:48;;;;;;;;;;;;;;;6.09;51.19;98181.34;4206611;28;5202;-66
2023/01/24 16:03:51;;;;;;;;;;;;;;;6.09;51.25;98178.72;4207166;28;7847;-68
2023/01/24 16:05:53;;;;;;;;;;;;;;;6.09;51.01;98186.59;4205181;28;5133;-66
2023/01/24 16:07:56;;;;;;;;;;;;;;;6.07;51.23;98185.91;4204298;28;5749;-62
2023/01/24 16:09:59;;;;;;;;;;;;;;;6.07;51.02;98183.28;4196647;28;5653;-63
2023/01/24 16:12:03;;;;;;;;;;;;;;;6.07;51.00;98183.28;4207782;28;5869;-61
2023/01/24 16:14:13;;;;;;;;;;;;;;;6.08;51.18;98179.69;4209105;28;5640;-62
2023/01/24 16:16:16;;;;;;;;;;;;;;;6.07;51.00;98172.78;4206957;28;5819;-63
2023/01/24 16:18:19;;;;;;;;;;;;;;;6.03;51.02;98172.22;4208943;28;5643;-64
2023/01/24 16:20:23;;;;;;;;;;;;;;;6.03;51.22;98179.25;4197760;28;5619;-62
2023/01/24 16:22:28;;;;;;;;;;;;;;;6.04;51.03;98176.50;4200016;28;5597;-62
2023/01/24 16:24:31;;;;;;;;;;;;;;;6.01;50.88;98175.94;4196148;28;5628;-62
2023/01/24 16:26:34;;;;;;;;;;;;;;;5.92;50.95;98172.31;4190493;28;5718;-63
2023/01/24 16:28:38;;;;;;;;;;;;;;;5.81;51.08;98181.06;4197880;28;5744;-63
2023/01/24 16:30:42;;;;;;;;;;;;;;;5.84;51.25;98185.19;4195572;28;5631;-61
2023/01/24 16:32:45;;;;;;;;;;;;;;;5.85;51.24;98194.72;4197405;28;5620;-64
2023/01/24 16:34:49;;;;;;;;;;;;;;;5.90;51.13;98199.63;4196937;28;6411;-65
2023/01/24 16:36:52;;;;;;;;;;;;;;;5.91;51.30;98198.69;4193317;28;5746;-63
2023/01/24 16:38:55;;;;;;;;;;;;;;;5.90;51.12;98194.38;4197368;28;5738;-63
2023/01/24 16:40:58;;;;;;;;;;;;;;;5.85;50.93;98202.59;4191975;28;5719;-62
2023/01/24 16:43:04;;;;;;;;;;;;;;;5.79;51.11;98211.00;4200690;28;5726;-62
2023/01/24 16:45:07;;;;;;;;;;;;;;;5.75;51.10;98199.91;4188082;28;5225;-61
2023/01/24 16:47:11;;;;;;;;;;;;;;;5.75;51.23;98209.59;4190512;28;8094;-62
2023/01/24 16:49:15;;;;;;;;;;;;;;;5.79;51.38;98206.59;4192723;28;5779;-65
2023/01/24 16:51:19;;;;;;;;;;;;;;;5.85;51.04;98208.69;4191005;28;5767;-62
2023/01/24 16:53:22;;;;;;;;;;;;;;;5.89;51.09;98216.28;4201913;28;5768;-62
2023/01/24 16:55:25;;;;;;;;;;;;;;;5.89;51.21;98219.78;4190966;28;6315;-67
2023/01/24 16:57:28;;;;;;;;;;;;;;;5.90;51.15;98218.84;4201083;28;5643;-65
2023/01/24 16:59:30;;;;;;;;;;;;;;;5.92;51.19;98213.47;4193671;28;5636;-66
2023/01/24 17:01:33;;;;;;;;;;;;;;;5.91;51.03;98214.44;4198760;28;5802;-64
2023/01/24 17:03:38;;;;;;;;;;;;;;;5.90;50.99;98210.97;4192535;28;5758;-64
2023/01/24 17:05:40;;;;;;;;;;;;;;;5.90;51.23;98223.25;4191614;28;5789;-65
2023/01/24 17:07:44;;;;;;;;;;;;;;;5.89;51.13;98222.41;4190434;28;5714;-65
2023/01/24 17:09:47;;;;;;;;;;;;;;;5.88;51.25;98223.34;4178192;28;6057;-65
2023/01/24 17:11:50;;;;;;;;;;;;;;;5.81;51.06;98217.78;4199814;28;5856;-65
2023/01/24 17:13:59;;;;;;;;;;;;;;;5.77;51.15;98232.09;4195910;28;5817;-65
2023/01/24 17:16:06;;;;;;;;;;;;;;;5.76;51.10;98227.81;4196419;28;6023;-65
2023/01/24 17:18:08;;;;;;;;;;;;;;;5.77;51.26;98224.22;4194286;28;6742;-65
2023/01/24 17:20:13;;;;;;;;;;;;;;;5.77;51.05;98226.03;4195109;28;5721;-65
2023/01/24 17:22:16;;;;;;;;;;;;;;;5.76;51.08;98219.94;4174517;28;5865;-65
2023/01/24 17:24:18;;;;;;;;;;;;;;;5.76;51.24;98225.19;4201858;28;5707;-65
2023/01/24 17:26:21;;;;;;;;;;;;;;;5.77;51.19;98233.91;4195090;28;5773;-65
2023/01/24 17:28:24;;;;;;;;;;;;;;;5.77;51.18;98229.47;4197855;28;5770;-65
2023/01/24 17:30:27;;;;;;;;;;;;;;;5.79;51.23;98232.84;4199637;28;5121;-65
2023/01/24 17:32:32;;;;;;;;;;;;;;;5.78;51.19;98230.34;4188064;28;7683;-64
2023/01/24 17:34:35;;;;;;;;;;;;;;;5.77;51.23;98232.09;4184258;28;5677;-66
2023/01/24 17:36:39;;;;;;;;;;;;;;;5.73;51.06;98233.34;4188637;28;5659;-65
2023/01/24 17:38:44;;;;;;;;;;;;;;;5.67;51.26;98231.22;4198107;28;6493;-66
2023/01/24 17:40:51;;;;;;;;;;;;;;;5.55;51.13;98235.72;4189062;28;5638;-64
2023/01/24 17:42:53;;;;;;;;;;;;;;;5.56;51.25;98241.78;4195834;28;5722;-65
2023/01/24 17:44:56;;;;;;;;;;;;;;;5.58;51.19;98246.91;4191796;28;5647;-65
2023/01/24 17:46:59;;;;;;;;;;;;;;;5.57;51.33;98243.44;4188079;28;5632;-65
2023/01/24 17:49:02;;;;;;;;;;;;;;;5.59;51.23;98249.41;4198763;28;5619;-65
2023/01/24 17:51:06;;;;;;;;;;;;;;;5.58;51.23;98250.34;4188658;28;5616;-65
2023/01/24 17:53:10;;;;;;;;;;;;;;;5.56;51.18;98244.41;4189742;28;5715;-65
2023/01/24 17:55:13;;;;;;;;;;;;;;;5.58;51.14;98239.03;4197028;28;5726;-63
2023/01/24 17:57:16;;;;;;;;;;;;;;;5.53;51.32;98242.00;4188915;28;5762;-62
2023/01/24 17:59:19;;;;;;;;;;;;;;;5.50;51.32;98242.28;4190930;28;5781;-61
2023/01/24 18:01:22;;;;;;;;;;;;;;;5.50;51.38;98244.91;4194222;28;5726;-61
2023/01/24 18:03:25;;;;;;;;;;;;;;;5.52;51.36;98241.19;4187815;28;5885;-61
2023/01/24 18:05:28;;;;;;;;;;;;;;;5.53;51.25;98242.00;4181540;28;5900;-61
2023/01/24 18:07:30;;;;;;;;;;;;;;;5.53;51.28;98244.63;4187332;28;6327;-62
2023/01/24 18:09:34;;;;;;;;;;;;;;;5.49;51.27;98240.63;4186365;28;5777;-69
2023/01/24 18:11:37;;;;;;;;;;;;;;;5.51;51.28;98247.38;4191410;28;6267;-70
2023/01/24 18:13:41;;;;;;;;;;;;;;;5.45;51.40;98257.56;4198756;28;5714;-67
2023/01/24 18:15:44;;;;;;;;;;;;;;;5.38;51.48;98253.78;4190218;28;5773;-67
2023/01/24 18:17:46;;;;;;;;;;;;;;;5.42;51.43;98258.63;4179190;28;5895;-67
2023/01/24 18:19:49;;;;;;;;;;;;;;;5.46;51.44;98260.06;4193528;28;5660;-68
2023/01/24 18:21:52;;;;;;;;;;;;;;;5.47;51.32;98263.50;4188940;28;5715;-68
2023/01/24 18:23:56;;;;;;;;;;;;;;;5.43;51.59;98256.84;4189732;28;5729;-68
2023/01/24 18:26:01;;;;;;;;;;;;;;;5.46;51.49;98257.44;4187754;28;6490;-72
2023/01/24 18:28:06;;;;;;;;;;;;;;;5.48;51.37;98255.53;4186948;28;5153;-67
2023/01/24 18:30:10;;;;;;;;;;;;;;;5.54;51.53;98259.41;4190851;28;5733;-67
2023/01/24 18:32:13;;;;;;;;;;;;;;;5.54;51.29;98254.16;4188418;28;5734;-67
2023/01/24 18:34:16;;;;;;;;;;;;;;;5.56;51.39;98244.41;4186307;28;5698;-67
2023/01/24 18:36:21;;;;;;;;;;;;;;;5.49;51.53;98253.72;4185152;28;5801;-63
2023/01/24 18:38:23;;;;;;;;;;;;;;;5.45;51.63;98262.81;4188844;28;5892;-62